createdAt,value
2022-12-14T00:01:25.120Z,32.83
2022-12-14T00:03:52.386Z,31.20
2022-12-14T00:06:24.399Z,31.05
2022-12-14T00:08:52.816Z,31.55
2022-12-14T00:11:19.984Z,31.52
2022-12-14T00:13:48.975Z,30.40
2022-12-14T00:16:18.292Z,29.50
2022-12-14T00:18:49.952Z,30.05
2022-12-14T00:21:16.621Z,30.30
2022-12-14T00:23:44.899Z,29.50
2022-12-14T00:26:14.939Z,30.50
2022-12-14T00:28:42.696Z,31.33
2022-12-14T00:31:10.048Z,28.98
2022-12-14T00:33:37.632Z,28.92
2022-12-14T00:36:05.851Z,30.17
2022-12-14T00:38:32.665Z,30.63
2022-12-14T00:40:59.413Z,32.47
2022-12-14T00:43:26.279Z,31.67
2022-12-14T00:45:53.455Z,31.77
2022-12-14T00:48:21.636Z,33.70
2022-12-14T00:50:49.751Z,31.92
2022-12-14T00:53:17.127Z,32.22
2022-12-14T00:55:49.204Z,35.35
2022-12-14T00:58:19.721Z,33.85
2022-12-14T01:00:48.509Z,32.70
2022-12-14T01:03:15.867Z,33.00
2022-12-14T01:05:45.282Z,29.83
2022-12-14T01:08:16.195Z,33.47
2022-12-14T01:10:43.170Z,30.25
2022-12-14T01:13:11.635Z,31.20
2022-12-14T01:15:38.561Z,30.00
2022-12-14T01:18:05.537Z,25.27
2022-12-14T01:20:32.262Z,30.85
2022-12-14T01:23:02.128Z,32.70
2022-12-14T01:25:31.549Z,28.92
2022-12-14T01:27:58.132Z,32.22
2022-12-14T01:30:25.123Z,30.73
2022-12-14T01:32:51.712Z,31.15
2022-12-14T01:35:18.275Z,34.67
2022-12-14T01:37:44.895Z,28.92
2022-12-14T01:40:15.650Z,28.35
2022-12-14T01:42:42.214Z,31.13
2022-12-14T01:45:18.724Z,27.90
2022-12-14T01:47:53.804Z,18.60
2022-12-14T01:50:34.942Z,21.83
2022-12-14T01:53:28.563Z,23.88
2022-12-14T01:55:56.680Z,31.38
2022-12-14T01:58:26.780Z,29.88
2022-12-14T02:00:56.930Z,31.15
2022-12-14T02:03:31.430Z,30.70
2022-12-14T02:06:06.154Z,30.42
2022-12-14T02:08:33.368Z,30.20
2022-12-14T02:11:02.574Z,32.33
2022-12-14T02:13:32.628Z,24.83
2022-12-14T02:15:59.677Z,21.13
2022-12-14T02:18:29.814Z,13.68
2022-12-14T02:21:06.239Z,17.75
2022-12-14T02:24:07.918Z,20.00
2022-12-14T02:27:10.842Z,29.48
2022-12-14T02:29:45.622Z,27.88
2022-12-14T02:32:52.272Z,30.20
2022-12-14T02:35:31.795Z,27.30
2022-12-14T02:38:17.917Z,25.17
2022-12-14T02:41:02.857Z,22.02
2022-12-14T02:43:49.377Z,22.33
2022-12-14T02:46:25.236Z,28.95
2022-12-14T02:51:54.915Z,28.40
2022-12-14T02:54:30.065Z,27.67
2022-12-14T02:57:08.600Z,27.63
2022-12-14T02:59:36.094Z,29.65
2022-12-14T03:02:04.833Z,30.23
2022-12-14T03:04:31.723Z,30.52
2022-12-14T03:07:22.695Z,25.58
2022-12-14T03:09:49.393Z,29.10
2022-12-14T03:12:18.034Z,28.60
2022-12-14T03:14:50.777Z,13.98
2022-12-14T03:17:21.289Z,16.75
2022-12-14T03:20:01.060Z,15.45
2022-12-14T03:22:33.805Z,15.13
2022-12-14T03:25:13.016Z,26.15
2022-12-14T03:27:46.513Z,24.95
2022-12-14T03:30:23.725Z,26.73
2022-12-14T03:33:09.301Z,27.73
2022-12-14T03:35:45.936Z,33.10
2022-12-14T03:38:22.930Z,30.98
2022-12-14T03:40:52.404Z,27.98
2022-12-14T03:43:31.876Z,29.02
2022-12-14T03:46:30.922Z,31.67
2022-12-14T03:49:10.305Z,31.27
2022-12-14T03:52:01.390Z,32.13
2022-12-14T03:54:45.383Z,27.98
2022-12-14T03:57:27.925Z,31.00
2022-12-14T04:00:18.073Z,26.02
2022-12-14T04:03:09.976Z,28.95
2022-12-14T04:05:48.887Z,30.60
2022-12-14T04:08:36.291Z,28.70
2022-12-14T04:11:26.049Z,31.13
2022-12-14T04:14:37.075Z,29.15
2022-12-14T04:17:31.318Z,28.35
2022-12-14T04:20:10.387Z,25.48
2022-12-14T04:22:47.978Z,22.25
2022-12-14T04:25:42.302Z,28.30
2022-12-14T04:28:53.106Z,28.98
2022-12-14T04:31:24.202Z,22.52
2022-12-14T04:33:54.992Z,22.15
2022-12-14T04:36:29.963Z,29.20
2022-12-14T04:39:08.883Z,32.53
2022-12-14T04:41:38.633Z,31.77
2022-12-14T04:44:13.626Z,28.33
2022-12-14T04:46:42.341Z,19.03
2022-12-14T04:49:31.951Z,30.13
2022-12-14T04:52:24.575Z,16.45
2022-12-14T04:55:08.879Z,31.45
2022-12-14T04:57:47.380Z,24.90
2022-12-14T05:00:14.791Z,30.55
2022-12-14T05:03:11.318Z,26.92
2022-12-14T05:05:50.731Z,19.33
2022-12-14T05:08:42.810Z,33.50
2022-12-14T05:11:41.326Z,12.20
2022-12-14T05:14:01.066Z,22.15
2022-12-14T05:16:27.783Z,17.23
2022-12-14T05:18:54.425Z,11.88
2022-12-14T05:21:39.510Z,15.13
2022-12-14T05:24:07.294Z,9.45
2022-12-14T05:26:34.301Z,19.50
2022-12-14T05:29:00.880Z,16.50
2022-12-14T05:31:27.468Z,19.30
2022-12-14T05:33:54.035Z,17.60
2022-12-14T05:36:20.663Z,20.40
2022-12-14T05:38:47.628Z,17.65
2022-12-14T05:41:15.074Z,29.23
2022-12-14T05:43:41.897Z,24.08
2022-12-14T05:46:11.676Z,27.83
2022-12-14T05:48:38.309Z,22.35
2022-12-14T05:51:10.154Z,24.80
2022-12-14T05:53:37.831Z,27.55
2022-12-14T05:56:06.217Z,27.45
2022-12-14T05:58:34.629Z,37.40
2022-12-14T06:01:04.087Z,30.15
2022-12-14T06:03:31.249Z,36.20
2022-12-14T06:06:05.557Z,34.65
2022-12-14T06:08:37.583Z,34.13
2022-12-14T06:11:08.956Z,36.00
2022-12-14T06:13:36.811Z,30.30
2022-12-14T06:16:17.820Z,34.50
2022-12-14T06:18:50.364Z,11.70
2022-12-14T06:21:19.296Z,28.85
2022-12-14T06:23:46.426Z,24.50
2022-12-14T06:26:14.242Z,34.72
2022-12-14T06:28:41.015Z,26.02
2022-12-14T06:31:08.400Z,16.27
2022-12-14T06:33:35.925Z,25.73
2022-12-14T06:36:03.152Z,22.55
2022-12-14T06:38:30.038Z,14.57
2022-12-14T06:40:56.666Z,13.40
2022-12-14T06:43:30.001Z,11.13
2022-12-14T06:45:57.291Z,28.58
2022-12-14T06:48:23.936Z,13.68
2022-12-14T06:50:51.734Z,29.42
2022-12-14T06:53:18.419Z,25.35
2022-12-14T06:55:45.028Z,23.75
2022-12-14T06:58:15.916Z,24.60
2022-12-14T07:00:42.569Z,8.30
2022-12-14T07:03:10.212Z,26.35
2022-12-14T07:05:37.168Z,26.80
2022-12-14T07:08:05.283Z,17.70
2022-12-14T07:10:31.953Z,24.65
2022-12-14T07:12:58.558Z,36.83
2022-12-14T07:15:25.160Z,32.75
2022-12-14T07:17:51.803Z,32.33
2022-12-14T07:20:18.726Z,32.42
2022-12-14T07:22:49.252Z,34.72
2022-12-14T07:25:16.126Z,36.95
2022-12-14T07:27:42.692Z,34.90
2022-12-14T07:30:09.928Z,31.13
2022-12-14T07:32:36.526Z,35.85
2022-12-14T07:35:03.173Z,35.70
2022-12-14T07:37:29.816Z,37.30
2022-12-14T07:39:56.412Z,35.53
2022-12-14T07:42:23.014Z,38.17
2022-12-14T07:44:49.638Z,34.05
2022-12-14T07:47:16.842Z,38.08
2022-12-14T07:49:44.057Z,38.45
2022-12-14T07:52:11.392Z,41.42
2022-12-14T07:54:38.026Z,40.72
2022-12-14T07:57:04.696Z,37.47
2022-12-14T07:59:34.475Z,37.80
2022-12-14T08:02:01.271Z,39.53
2022-12-14T08:04:28.047Z,37.35
2022-12-14T08:06:59.109Z,35.25
2022-12-14T08:09:25.760Z,34.40
2022-12-14T08:11:52.351Z,30.88
2022-12-14T08:14:19.789Z,33.03
2022-12-14T08:16:49.580Z,32.28
2022-12-14T08:19:17.891Z,32.47
2022-12-14T08:21:45.989Z,33.08
2022-12-14T08:24:13.663Z,32.03
2022-12-14T08:26:40.325Z,30.15
2022-12-14T08:29:07.009Z,34.00
2022-12-14T08:31:34.011Z,28.38
2022-12-14T08:34:01.986Z,23.20
2022-12-14T08:36:30.883Z,31.90
2022-12-14T08:39:03.440Z,32.05
2022-12-14T08:41:30.341Z,26.20
2022-12-14T08:43:59.311Z,29.25
2022-12-14T08:46:28.196Z,26.20
2022-12-14T08:48:55.878Z,26.65
2022-12-14T08:51:23.948Z,30.67
2022-12-14T08:53:51.508Z,30.60
2022-12-14T08:56:21.534Z,27.45
2022-12-14T08:58:48.871Z,28.38
2022-12-14T09:01:30.323Z,25.58
2022-12-14T09:04:08.967Z,30.45
2022-12-14T09:06:38.885Z,29.85
2022-12-14T09:09:13.314Z,29.58
2022-12-14T09:11:42.009Z,24.92
2022-12-14T09:14:10.867Z,27.98
2022-12-14T09:16:40.395Z,29.63
2022-12-14T09:19:07.234Z,27.25
2022-12-14T09:21:34.174Z,30.88
2022-12-14T09:24:01.489Z,22.13
2022-12-14T09:26:28.585Z,34.30
2022-12-14T09:28:57.216Z,30.35
2022-12-14T09:31:25.707Z,28.75
2022-12-14T09:33:52.752Z,28.75
2022-12-14T09:36:22.072Z,29.20
2022-12-14T09:38:55.308Z,25.13
2022-12-14T09:41:34.757Z,28.67
2022-12-14T09:44:25.034Z,30.80
2022-12-14T09:47:17.204Z,29.58
2022-12-14T09:49:54.405Z,32.85
2022-12-14T09:52:26.562Z,26.05
2022-12-14T09:54:55.433Z,30.05
2022-12-14T09:57:34.405Z,22.92
2022-12-14T10:00:01.220Z,29.48
2022-12-14T10:03:04.523Z,21.42
2022-12-14T10:05:57.191Z,21.65
2022-12-14T10:08:26.974Z,33.55
2022-12-14T10:11:07.444Z,31.23
2022-12-14T10:14:09.767Z,25.60
2022-12-14T10:16:49.950Z,33.10
2022-12-14T10:19:35.205Z,31.65
2022-12-14T10:22:12.446Z,26.90
2022-12-14T10:25:10.522Z,33.33
2022-12-14T10:28:09.155Z,30.33
2022-12-14T10:30:25.260Z,28.48
2022-12-14T10:32:57.273Z,30.48
2022-12-14T10:35:43.478Z,31.17
2022-12-14T10:38:45.013Z,31.63
2022-12-14T10:41:27.998Z,23.98
2022-12-14T10:43:59.169Z,25.38
2022-12-14T10:46:51.661Z,24.10
2022-12-14T10:49:50.524Z,24.45
2022-12-14T10:52:23.599Z,29.88
2022-12-14T10:54:54.421Z,27.92
2022-12-14T10:57:26.430Z,22.48
2022-12-14T11:00:07.793Z,24.02
2022-12-14T11:02:41.717Z,17.60
2022-12-14T11:05:41.571Z,27.92
2022-12-14T11:08:09.064Z,23.63
2022-12-14T11:10:39.738Z,15.82
2022-12-14T11:13:16.700Z,23.00
2022-12-14T11:15:48.704Z,26.08
2022-12-14T11:18:15.511Z,20.70
2022-12-14T11:21:02.426Z,20.25
2022-12-14T11:23:40.661Z,21.90
2022-12-14T11:26:13.487Z,24.65
2022-12-14T11:28:49.889Z,26.52
2022-12-14T11:31:40.192Z,24.85
2022-12-14T11:34:22.287Z,26.15
2022-12-14T11:36:50.207Z,23.25
2022-12-14T11:39:22.802Z,16.17
2022-12-14T11:41:52.369Z,26.58
2022-12-14T11:44:18.944Z,25.40
2022-12-14T11:46:58.004Z,18.70
2022-12-14T11:49:35.137Z,16.95
2022-12-14T11:52:04.722Z,23.02
2022-12-14T11:54:50.181Z,18.02
2022-12-14T11:57:57.572Z,19.15
2022-12-14T12:00:30.875Z,19.58
2022-12-14T12:03:23.718Z,20.25
2022-12-14T12:05:52.560Z,21.33
2022-12-14T12:08:24.686Z,20.30
2022-12-14T12:10:54.401Z,24.45
2022-12-14T12:13:28.503Z,23.58
2022-12-14T12:15:59.340Z,27.17
2022-12-14T12:18:47.073Z,28.67
2022-12-14T12:21:26.446Z,31.00
2022-12-14T12:24:15.680Z,28.35
2022-12-14T12:26:54.813Z,33.78
2022-12-14T12:29:48.967Z,28.10
2022-12-14T12:32:37.873Z,26.67
2022-12-14T12:35:18.912Z,26.95
2022-12-14T12:37:57.392Z,25.05
2022-12-14T12:41:00.718Z,23.25
2022-12-14T12:43:50.179Z,22.98
2022-12-14T12:47:14.975Z,24.85
2022-12-14T12:49:32.807Z,23.02
2022-12-14T12:52:06.586Z,20.15
2022-12-14T12:54:40.206Z,18.95
2022-12-14T12:57:11.968Z,18.58
2022-12-14T12:59:45.456Z,21.85
2022-12-14T13:02:30.639Z,20.58
2022-12-14T13:05:16.682Z,14.35
2022-12-14T13:07:53.069Z,17.15
2022-12-14T13:10:25.420Z,11.20
2022-12-14T13:13:18.417Z,17.73
2022-12-14T13:15:50.539Z,16.90
2022-12-14T13:18:59.180Z,20.77
2022-12-14T13:21:36.622Z,18.45
2022-12-14T13:24:06.290Z,19.58
2022-12-14T13:30:13.649Z,19.98
2022-12-14T13:32:40.210Z,18.27
2022-12-14T13:35:30.059Z,19.90
2022-12-14T13:38:00.723Z,18.65
2022-12-14T13:40:50.271Z,16.23
2022-12-14T13:43:35.675Z,18.25
2022-12-14T13:46:11.776Z,14.45
2022-12-14T13:51:09.107Z,12.73
2022-12-14T13:53:42.028Z,15.50
2022-12-14T13:56:09.981Z,15.52
2022-12-14T13:58:42.248Z,15.85
2022-12-14T14:01:15.699Z,16.00
2022-12-14T14:03:44.094Z,16.95
2022-12-14T14:06:29.356Z,14.80
2022-12-14T14:08:55.994Z,13.35
2022-12-14T14:11:36.904Z,14.50
2022-12-14T14:14:04.674Z,19.70
2022-12-14T14:16:42.838Z,17.08
2022-12-14T14:19:09.480Z,18.55
2022-12-14T14:22:22.169Z,18.15
2022-12-14T14:24:58.513Z,19.40
2022-12-14T14:27:32.765Z,16.90
2022-12-14T14:29:59.510Z,18.92
2022-12-14T14:32:33.273Z,17.90
2022-12-14T14:35:06.619Z,18.02
2022-12-14T14:37:38.915Z,18.15
2022-12-14T14:40:38.282Z,20.60
2022-12-14T14:43:32.530Z,21.00
2022-12-14T14:46:05.885Z,19.98
2022-12-14T14:48:53.163Z,19.13
2022-12-14T14:51:25.570Z,10.13
2022-12-14T14:54:46.149Z,18.48
2022-12-14T14:57:56.110Z,17.23
2022-12-14T15:02:54.621Z,19.65
2022-12-14T15:05:41.998Z,19.25
2022-12-14T15:08:19.130Z,16.77
2022-12-14T15:10:46.996Z,19.15
2022-12-14T15:13:24.489Z,18.25
2022-12-14T15:15:53.619Z,19.08
2022-12-14T15:18:30.705Z,18.73
2022-12-14T15:21:04.294Z,17.02
2022-12-14T15:23:43.252Z,20.55
2022-12-14T15:26:34.184Z,19.23
2022-12-14T15:29:02.456Z,19.15
2022-12-14T15:31:41.997Z,18.67
2022-12-14T15:34:16.506Z,21.70
2022-12-14T15:36:44.298Z,21.30
2022-12-14T15:39:40.808Z,19.55
2022-12-14T15:42:15.291Z,17.92
2022-12-14T15:44:55.153Z,20.08
2022-12-14T15:47:32.015Z,21.02
2022-12-14T15:50:15.743Z,18.92
2022-12-14T15:52:45.664Z,16.60
2022-12-14T15:55:31.382Z,16.80
2022-12-14T15:58:10.742Z,18.95
2022-12-14T16:00:42.782Z,20.10
2022-12-14T16:03:40.304Z,20.35
2022-12-14T16:06:09.408Z,19.38
2022-12-14T16:08:38.654Z,18.05
2022-12-14T16:11:15.425Z,16.77
2022-12-14T16:13:46.246Z,18.70
2022-12-14T16:16:14.483Z,18.73
2022-12-14T16:18:50.897Z,21.33
2022-12-14T16:21:32.220Z,16.08
2022-12-14T16:24:02.386Z,14.90
2022-12-14T16:26:33.534Z,19.25
2022-12-14T16:29:22.850Z,21.60
2022-12-14T16:31:49.988Z,20.60
2022-12-14T16:34:23.604Z,19.52
2022-12-14T16:37:14.627Z,20.42
2022-12-14T16:39:40.116Z,19.00
2022-12-14T16:42:18.498Z,16.83
2022-12-14T16:44:47.780Z,18.17
2022-12-14T16:47:17.271Z,18.85
2022-12-14T16:49:50.441Z,18.33
2022-12-14T16:52:21.363Z,20.45
2022-12-14T16:55:10.786Z,18.65
2022-12-14T16:57:41.512Z,19.00
2022-12-14T17:00:19.207Z,20.83
2022-12-14T17:03:03.841Z,18.42
2022-12-14T17:05:39.675Z,17.15
2022-12-14T17:08:07.893Z,21.38
2022-12-14T17:10:34.849Z,21.33
2022-12-14T17:13:03.021Z,15.73
2022-12-14T17:15:32.820Z,18.50
2022-12-14T17:18:02.133Z,17.98
2022-12-14T17:20:31.216Z,19.00
2022-12-14T17:23:01.938Z,20.48
2022-12-14T17:25:31.573Z,22.58
2022-12-14T17:28:00.278Z,21.15
2022-12-14T17:30:26.988Z,21.92
2022-12-14T17:32:55.051Z,19.83
2022-12-14T17:35:29.815Z,21.00
2022-12-14T17:37:56.944Z,19.45
2022-12-14T17:40:24.762Z,19.92
2022-12-14T17:42:53.542Z,18.75
2022-12-14T17:45:26.580Z,18.95
2022-12-14T17:47:54.552Z,15.35
2022-12-14T17:50:21.886Z,18.05
2022-12-14T17:52:50.531Z,17.10
2022-12-14T17:55:18.429Z,15.00
2022-12-14T17:57:45.732Z,18.85
2022-12-14T18:00:36.890Z,20.70
2022-12-14T18:03:07.708Z,20.25
2022-12-14T18:05:34.493Z,19.60
2022-12-14T18:08:01.094Z,17.65
2022-12-14T18:10:28.255Z,18.40
2022-12-14T18:12:55.647Z,19.70
2022-12-14T18:15:27.953Z,20.98
2022-12-14T18:17:55.252Z,21.95
2022-12-14T18:20:24.100Z,18.73
2022-12-14T18:22:51.309Z,10.35
2022-12-14T18:25:35.987Z,16.42
2022-12-14T18:28:04.868Z,14.80
2022-12-14T18:30:39.513Z,19.73
2022-12-14T18:33:15.897Z,15.75
2022-12-14T18:35:44.163Z,19.83
2022-12-14T18:38:10.954Z,16.30
2022-12-14T18:40:38.486Z,22.13
2022-12-14T18:43:05.150Z,22.38
2022-12-14T18:45:34.738Z,16.40
2022-12-14T18:48:01.730Z,22.52
2022-12-14T18:50:29.051Z,21.40
2022-12-14T18:52:56.053Z,14.70
2022-12-14T18:55:31.963Z,19.23
2022-12-14T18:58:02.071Z,22.85
2022-12-14T19:00:33.748Z,23.75
2022-12-14T19:03:02.483Z,23.08
2022-12-14T19:05:30.666Z,21.75
2022-12-14T19:07:58.872Z,13.88
2022-12-14T19:10:28.984Z,24.80
2022-12-14T19:12:56.512Z,19.02
2022-12-14T19:15:28.735Z,23.83
2022-12-14T19:17:56.120Z,25.35
2022-12-14T19:20:23.756Z,26.10
2022-12-14T19:22:51.026Z,21.27
2022-12-14T19:25:22.162Z,24.60
2022-12-14T19:30:37.117Z,24.63
2022-12-14T19:33:04.058Z,24.80
2022-12-14T19:35:31.929Z,25.85
2022-12-14T19:37:58.671Z,27.67
2022-12-14T19:40:26.313Z,28.40
2022-12-14T19:42:52.994Z,27.65
2022-12-14T19:45:19.747Z,25.02
2022-12-14T19:47:46.509Z,30.33
2022-12-14T19:50:14.885Z,27.27
2022-12-14T19:52:42.080Z,28.33
2022-12-14T19:55:10.467Z,23.25
2022-12-14T19:57:38.699Z,27.40
2022-12-14T20:00:07.590Z,27.02
2022-12-14T20:02:34.385Z,26.98
2022-12-14T20:05:01.213Z,27.20
2022-12-14T20:07:27.844Z,27.50
2022-12-14T20:09:54.530Z,24.13
2022-12-14T20:12:21.108Z,24.73
2022-12-14T20:14:49.430Z,28.35
2022-12-14T20:17:16.692Z,29.63
2022-12-14T20:19:43.554Z,30.25
2022-12-14T20:22:10.264Z,32.05
2022-12-14T20:24:37.189Z,33.55
2022-12-14T20:27:04.079Z,31.17
2022-12-14T20:29:30.831Z,30.17
2022-12-14T20:31:57.950Z,31.40
2022-12-14T20:34:24.699Z,34.35
2022-12-14T20:36:51.280Z,32.92
2022-12-14T20:39:17.956Z,30.70
2022-12-14T20:41:44.520Z,27.40
2022-12-14T20:44:12.135Z,32.95
2022-12-14T20:46:42.977Z,31.70
2022-12-14T20:49:12.817Z,33.05
2022-12-14T20:51:39.980Z,32.13
2022-12-14T20:54:09.030Z,31.33
2022-12-14T20:56:36.667Z,30.33
2022-12-14T20:59:03.882Z,31.58
2022-12-14T21:01:30.781Z,33.17
2022-12-14T21:04:00.784Z,34.38
2022-12-14T21:06:27.583Z,30.38
2022-12-14T21:09:09.416Z,31.88
2022-12-14T21:12:00.552Z,29.30
2022-12-14T21:14:32.452Z,29.42
2022-12-14T21:17:00.190Z,31.60
2022-12-14T21:19:27.808Z,32.15
2022-12-14T21:21:54.517Z,33.38
2022-12-14T21:25:00.980Z,36.38
2022-12-14T21:27:15.021Z,35.13
2022-12-14T21:29:41.752Z,34.28
2022-12-14T21:32:08.828Z,29.73
2022-12-14T21:34:36.584Z,24.58
2022-12-14T21:37:03.222Z,31.15
2022-12-14T21:39:29.914Z,31.35
2022-12-14T21:42:15.611Z,30.60
2022-12-14T21:44:44.696Z,33.10
2022-12-14T21:47:15.656Z,32.83
2022-12-14T21:49:44.304Z,34.83
2022-12-14T21:52:16.829Z,34.65
2022-12-14T21:54:43.743Z,34.35
2022-12-14T21:57:35.092Z,34.05
2022-12-14T22:00:01.760Z,34.72
2022-12-14T22:02:29.539Z,33.13
2022-12-14T22:04:56.498Z,35.78
2022-12-14T22:07:30.810Z,36.55
2022-12-14T22:09:57.597Z,36.38
2022-12-14T22:12:24.430Z,32.95
2022-12-14T22:14:51.809Z,34.17
2022-12-14T22:17:18.393Z,32.63
2022-12-14T22:19:44.975Z,34.35
2022-12-14T22:22:15.733Z,35.15
2022-12-14T22:24:43.014Z,34.22
2022-12-14T22:27:12.987Z,33.20
2022-12-14T22:29:39.934Z,33.50
2022-12-14T22:32:07.363Z,35.22
2022-12-14T22:34:34.466Z,34.13
2022-12-14T22:37:01.309Z,32.97
2022-12-14T22:39:27.952Z,35.03
2022-12-14T22:41:54.575Z,32.95
2022-12-14T22:44:21.184Z,33.45
2022-12-14T22:46:47.898Z,34.13
2022-12-14T22:49:19.210Z,34.58
2022-12-14T22:51:46.449Z,34.40
2022-12-14T22:54:21.014Z,34.50
2022-12-14T22:56:52.921Z,35.78
2022-12-14T22:59:25.235Z,32.72
2022-12-14T23:01:52.091Z,33.17
2022-12-14T23:04:21.148Z,32.50
2022-12-14T23:06:47.989Z,35.25
2022-12-14T23:09:33.242Z,33.90
2022-12-14T23:12:21.903Z,31.30
2022-12-14T23:15:07.858Z,33.53
2022-12-14T23:17:53.813Z,31.77
2022-12-14T23:20:39.086Z,35.90
2022-12-14T23:23:25.678Z,33.95
2022-12-14T23:28:56.849Z,33.30
2022-12-14T23:31:41.695Z,33.15
2022-12-14T23:34:27.449Z,33.33
2022-12-14T23:37:19.770Z,34.27
2022-12-14T23:40:05.590Z,33.35
2022-12-14T23:42:50.642Z,34.60
2022-12-14T23:45:35.909Z,33.28
2022-12-14T23:48:21.350Z,36.65
2022-12-14T23:51:08.690Z,34.33
2022-12-14T23:53:53.563Z,36.30
2022-12-14T23:56:38.798Z,37.53
2022-12-14T23:59:27.985Z,35.78
